createdAt,value
2023-10-21T00:02:03.944Z,0.20
2023-10-21T00:04:30.813Z,0.20
2023-10-21T00:06:57.398Z,0.20
2023-10-21T00:09:23.918Z,0.10
2023-10-21T00:11:50.803Z,0.50
2023-10-21T00:14:18.676Z,0.10
2023-10-21T00:16:45.311Z,0.10
2023-10-21T00:19:12.137Z,0.20
2023-10-21T00:21:39.965Z,0.20
2023-10-21T00:24:06.881Z,0.40
2023-10-21T00:26:43.690Z,0.10
2023-10-21T00:29:12.847Z,0.20
2023-10-21T00:31:39.492Z,0.20
2023-10-21T00:34:06.110Z,0.10
2023-10-21T00:36:32.661Z,0.10
2023-10-21T00:38:59.328Z,0.20
2023-10-21T00:41:26.302Z,0.10
2023-10-21T00:43:52.865Z,0.10
2023-10-21T00:46:19.885Z,0.20
2023-10-21T00:48:47.399Z,0.20
2023-10-21T00:51:14.531Z,0.20
2023-10-21T00:53:41.481Z,0.20
2023-10-21T00:56:08.741Z,0.20
2023-10-21T00:58:36.591Z,0.40
2023-10-21T01:01:07.200Z,0.10
2023-10-21T01:03:34.671Z,0.17
2023-10-21T01:06:01.571Z,0.20
2023-10-21T01:08:28.398Z,0.10
2023-10-21T01:10:56.149Z,0.30
2023-10-21T01:13:23.241Z,0.10
2023-10-21T01:15:49.742Z,0.10
2023-10-21T01:18:16.353Z,0.10
2023-10-21T01:20:43.010Z,0.10
2023-10-21T01:23:09.844Z,0.10
2023-10-21T01:25:36.393Z,0.10
2023-10-21T01:28:03.114Z,0.20
2023-10-21T01:30:29.668Z,0.03
2023-10-21T01:32:56.327Z,0.10
2023-10-21T01:35:23.132Z,0.10
2023-10-21T01:37:50.203Z,0.10
2023-10-21T01:40:18.065Z,0.10
2023-10-21T01:42:44.612Z,0.10
2023-10-21T01:45:11.497Z,0.10
2023-10-21T01:47:38.675Z,0.00
2023-10-21T01:50:09.329Z,0.10
2023-10-21T01:52:36.674Z,0.00
2023-10-21T01:55:04.711Z,0.30
2023-10-21T01:57:32.361Z,0.00
2023-10-21T02:00:02.614Z,0.00
2023-10-21T02:02:40.037Z,0.10
2023-10-21T02:05:07.370Z,0.10
2023-10-21T02:07:38.067Z,0.10
2023-10-21T02:10:06.567Z,0.00
2023-10-21T02:12:33.528Z,0.03
2023-10-21T02:15:00.713Z,0.00
2023-10-21T02:17:27.366Z,0.05
2023-10-21T02:19:57.701Z,0.00
2023-10-21T02:22:28.059Z,0.00
2023-10-21T02:24:54.702Z,0.00
2023-10-21T02:27:21.408Z,0.00
2023-10-21T02:29:48.430Z,0.00
2023-10-21T02:32:15.274Z,0.10
2023-10-21T02:34:41.966Z,0.00
2023-10-21T02:37:09.827Z,0.00
2023-10-21T02:39:36.613Z,0.00
2023-10-21T02:42:03.966Z,0.00
2023-10-21T02:44:30.588Z,0.00
2023-10-21T02:46:57.172Z,0.00
2023-10-21T02:49:23.855Z,0.00
2023-10-21T02:51:50.471Z,0.00
2023-10-21T02:54:17.384Z,0.00
2023-10-21T02:56:44.338Z,0.00
2023-10-21T02:59:11.171Z,0.00
2023-10-21T03:01:38.085Z,0.00
2023-10-21T03:04:04.795Z,0.00
2023-10-21T03:06:31.424Z,0.00
2023-10-21T03:08:58.280Z,0.00
2023-10-21T03:11:26.123Z,0.00
2023-10-21T03:13:52.775Z,0.00
2023-10-21T03:16:19.675Z,0.00
2023-10-21T03:18:48.991Z,0.10
2023-10-21T03:21:16.036Z,0.32
2023-10-21T03:23:42.674Z,0.00
2023-10-21T03:26:09.197Z,0.10
2023-10-21T03:28:36.122Z,0.28
2023-10-21T03:31:05.354Z,0.13
2023-10-21T03:33:32.304Z,0.32
2023-10-21T03:36:02.630Z,0.03
2023-10-21T03:38:30.381Z,0.00
2023-10-21T03:40:58.623Z,0.00
2023-10-21T03:43:25.630Z,0.00
2023-10-21T03:45:52.512Z,0.00
2023-10-21T03:48:19.420Z,0.00
2023-10-21T03:50:46.775Z,0.00
2023-10-21T03:53:15.178Z,0.00
2023-10-21T03:55:42.696Z,0.00
2023-10-21T03:58:09.311Z,0.10
2023-10-21T04:00:35.956Z,0.00
2023-10-21T04:03:03.925Z,0.00
2023-10-21T04:05:31.112Z,0.00
2023-10-21T04:07:57.926Z,0.00
2023-10-21T04:10:24.477Z,0.47
2023-10-21T04:12:51.046Z,0.00
2023-10-21T04:15:17.633Z,0.00
2023-10-21T04:17:46.702Z,0.10
2023-10-21T04:20:14.149Z,0.10
2023-10-21T04:22:40.788Z,0.00
2023-10-21T04:25:08.023Z,0.00
2023-10-21T04:27:34.955Z,0.00
2023-10-21T04:30:01.916Z,0.00
2023-10-21T04:32:29.168Z,0.10
2023-10-21T04:34:55.927Z,0.00
2023-10-21T04:37:22.788Z,0.00
2023-10-21T04:39:49.549Z,0.20
2023-10-21T04:42:16.365Z,0.00
2023-10-21T04:44:44.245Z,0.28
2023-10-21T04:47:10.829Z,0.00
2023-10-21T04:49:37.940Z,0.00
2023-10-21T04:52:04.730Z,0.00
2023-10-21T04:54:31.285Z,0.00
2023-10-21T04:56:57.904Z,0.00
2023-10-21T04:59:24.583Z,0.10
2023-10-21T05:01:51.443Z,0.00
2023-10-21T05:04:18.063Z,0.00
2023-10-21T05:06:44.751Z,0.00
2023-10-21T05:09:14.054Z,0.00
2023-10-21T05:11:40.736Z,0.00
2023-10-21T05:14:07.494Z,0.00
2023-10-21T05:16:34.136Z,0.00
2023-10-21T05:19:00.982Z,0.10
2023-10-21T05:21:27.701Z,0.00
2023-10-21T05:23:54.775Z,0.00
2023-10-21T05:26:21.678Z,0.00
2023-10-21T05:28:49.474Z,0.00
2023-10-21T05:31:16.223Z,0.00
2023-10-21T05:33:42.907Z,0.00
2023-10-21T05:36:09.852Z,0.00
2023-10-21T05:38:36.552Z,0.10
2023-10-21T05:41:03.384Z,0.00
2023-10-21T05:43:30.035Z,0.00
2023-10-21T05:45:56.671Z,0.20
2023-10-21T05:48:23.672Z,0.00
2023-10-21T05:50:50.467Z,0.00
2023-10-21T05:53:17.483Z,0.00
2023-10-21T05:55:44.463Z,0.00
2023-10-21T05:58:11.154Z,0.00
2023-10-21T06:00:37.850Z,0.00
2023-10-21T06:05:33.278Z,0.00
2023-10-21T06:07:59.817Z,0.00
2023-10-21T06:10:26.504Z,0.00
2023-10-21T06:12:53.271Z,0.00
2023-10-21T06:15:19.962Z,0.00
2023-10-21T06:17:46.899Z,0.00
2023-10-21T06:20:14.602Z,0.00
2023-10-21T06:22:41.168Z,0.00
2023-10-21T06:25:08.050Z,0.00
2023-10-21T06:27:34.619Z,0.00
2023-10-21T06:30:01.260Z,0.00
2023-10-21T06:32:28.002Z,0.00
2023-10-21T06:34:54.647Z,0.05
2023-10-21T06:37:21.377Z,0.00
2023-10-21T06:39:49.535Z,0.00
2023-10-21T06:42:16.656Z,0.00
2023-10-21T06:44:43.563Z,0.00
2023-10-21T06:47:10.174Z,0.00
2023-10-21T06:49:36.688Z,0.00
2023-10-21T06:52:03.663Z,0.00
2023-10-21T06:54:30.373Z,0.00
2023-10-21T06:56:57.075Z,0.00
2023-10-21T06:59:23.837Z,0.00
2023-10-21T07:01:50.525Z,0.00
2023-10-21T07:04:17.460Z,0.00
2023-10-21T07:06:44.030Z,0.00
2023-10-21T07:09:11.003Z,0.00
2023-10-21T07:11:38.565Z,0.00
2023-10-21T07:14:05.206Z,0.00
2023-10-21T07:16:31.852Z,0.00
2023-10-21T07:18:58.431Z,0.10
2023-10-21T07:21:25.556Z,2.50
2023-10-21T07:23:52.353Z,1.80
2023-10-21T07:26:20.719Z,3.97
2023-10-21T07:28:48.057Z,5.30
2023-10-21T07:31:15.342Z,3.40
2023-10-21T07:33:42.197Z,6.57
2023-10-21T07:36:09.024Z,2.28
2023-10-21T07:38:36.336Z,4.35
2023-10-21T07:41:12.533Z,3.00
2023-10-21T07:43:39.307Z,2.38
2023-10-21T07:46:05.917Z,7.18
2023-10-21T07:48:33.096Z,7.72
2023-10-21T07:50:59.784Z,7.70
2023-10-21T07:53:26.446Z,3.15
2023-10-21T07:55:54.094Z,2.50
2023-10-21T07:58:20.866Z,2.55
2023-10-21T08:00:47.646Z,1.70
2023-10-21T08:03:14.254Z,2.08
2023-10-21T08:05:41.452Z,1.90
2023-10-21T08:08:08.413Z,2.00
2023-10-21T08:10:35.191Z,2.20
2023-10-21T08:13:01.705Z,1.70
2023-10-21T08:15:30.643Z,1.85
2023-10-21T08:17:58.181Z,1.88
2023-10-21T08:20:25.653Z,1.67
2023-10-21T08:22:54.763Z,1.70
2023-10-21T08:25:21.614Z,1.90
2023-10-21T08:27:48.232Z,1.95
2023-10-21T08:30:16.330Z,1.67
2023-10-21T08:32:43.302Z,1.35
2023-10-21T08:35:09.896Z,1.40
2023-10-21T08:37:38.573Z,1.30
2023-10-21T08:40:09.250Z,1.80
2023-10-21T08:42:48.358Z,1.30
2023-10-21T08:45:23.000Z,0.90
2023-10-21T08:47:49.901Z,0.80
2023-10-21T08:50:17.327Z,0.80
2023-10-21T08:52:44.171Z,0.80
2023-10-21T08:55:11.784Z,0.70
2023-10-21T08:57:38.446Z,0.80
2023-10-21T09:00:06.505Z,0.60
2023-10-21T09:02:33.180Z,0.50
2023-10-21T09:05:00.320Z,0.60
2023-10-21T09:07:44.285Z,0.30
2023-10-21T09:10:10.996Z,0.30
2023-10-21T09:12:39.011Z,0.28
2023-10-21T09:15:06.837Z,0.20
2023-10-21T09:17:36.584Z,0.20
2023-10-21T09:20:10.427Z,0.15
2023-10-21T09:22:37.378Z,0.10
2023-10-21T09:25:17.131Z,0.10
2023-10-21T09:27:44.353Z,0.00
2023-10-21T09:30:16.059Z,0.03
2023-10-21T09:32:43.094Z,0.10
2023-10-21T09:35:18.147Z,0.00
2023-10-21T09:37:45.887Z,0.00
2023-10-21T09:40:13.814Z,0.00
2023-10-21T09:42:44.163Z,0.00
2023-10-21T09:45:12.204Z,0.00
2023-10-21T09:47:40.922Z,0.00
2023-10-21T09:50:11.484Z,0.00
2023-10-21T09:52:52.902Z,0.17
2023-10-21T09:55:25.723Z,0.00
2023-10-21T09:57:53.874Z,0.00
2023-10-21T10:00:21.378Z,0.00
2023-10-21T10:02:49.728Z,0.10
2023-10-21T10:05:18.351Z,0.00
2023-10-21T10:07:46.195Z,0.00
2023-10-21T10:10:16.742Z,0.00
2023-10-21T10:12:55.276Z,0.10
2023-10-21T10:15:34.300Z,0.00
2023-10-21T10:18:14.438Z,0.00
2023-10-21T10:20:49.379Z,0.00
2023-10-21T10:23:16.480Z,0.00
2023-10-21T10:25:44.432Z,0.00
2023-10-21T10:28:15.143Z,0.00
2023-10-21T10:30:45.299Z,0.00
2023-10-21T10:33:24.396Z,0.20
2023-10-21T10:35:55.018Z,0.10
2023-10-21T10:38:47.925Z,0.00
2023-10-21T10:41:16.720Z,0.00
2023-10-21T10:43:47.371Z,0.00
2023-10-21T10:46:18.887Z,0.00
2023-10-21T10:48:47.550Z,0.00
2023-10-21T10:51:16.714Z,0.00
2023-10-21T10:53:59.269Z,0.00
2023-10-21T10:56:28.687Z,0.00
2023-10-21T10:58:55.402Z,0.00
2023-10-21T11:01:29.335Z,0.00
2023-10-21T11:04:00.574Z,0.00
2023-10-21T11:06:32.336Z,0.20
2023-10-21T11:09:02.385Z,0.13
2023-10-21T11:11:29.162Z,0.00
2023-10-21T11:13:56.667Z,0.00
2023-10-21T11:16:23.732Z,0.00
2023-10-21T11:18:50.653Z,0.00
2023-10-21T11:21:17.271Z,0.00
2023-10-21T11:23:45.049Z,0.00
2023-10-21T11:26:12.323Z,0.00
2023-10-21T11:28:39.116Z,0.00
2023-10-21T11:31:06.788Z,0.00
2023-10-21T11:33:33.608Z,0.00
2023-10-21T11:36:01.831Z,0.00
2023-10-21T11:38:30.447Z,0.28
2023-10-21T11:40:57.458Z,0.00
2023-10-21T11:43:29.040Z,0.10
2023-10-21T11:45:55.985Z,0.00
2023-10-21T11:48:22.568Z,0.47
2023-10-21T11:50:49.203Z,0.00
2023-10-21T11:53:16.078Z,0.10
2023-10-21T11:55:52.268Z,0.00
2023-10-21T11:58:44.145Z,0.00
2023-10-21T12:01:30.135Z,0.22
2023-10-21T12:04:06.262Z,0.00
2023-10-21T12:06:51.076Z,0.00
2023-10-21T12:09:36.505Z,0.00
2023-10-21T12:12:23.570Z,0.00
2023-10-21T12:15:08.020Z,0.10
2023-10-21T12:17:53.165Z,0.00
2023-10-21T12:20:42.698Z,0.00
2023-10-21T12:23:12.332Z,0.00
2023-10-21T12:25:53.897Z,0.15
2023-10-21T12:28:39.191Z,1.33
2023-10-21T12:31:24.498Z,1.10
2023-10-21T12:34:00.252Z,1.30
2023-10-21T12:36:36.063Z,0.95
2023-10-21T12:41:53.317Z,1.23
2023-10-21T12:44:24.978Z,1.25
2023-10-21T12:46:59.227Z,0.90
2023-10-21T12:49:29.262Z,1.33
2023-10-21T12:51:56.216Z,0.73
2023-10-21T12:54:22.983Z,1.40
2023-10-21T12:56:50.518Z,1.08
2023-10-21T12:59:18.022Z,0.90
2023-10-21T13:01:44.891Z,1.20
2023-10-21T13:04:11.779Z,0.80
2023-10-21T13:06:39.542Z,1.05
2023-10-21T13:09:23.000Z,1.10
2023-10-21T13:11:53.544Z,1.38
2023-10-21T13:14:20.818Z,1.67
2023-10-21T13:16:49.109Z,0.98
2023-10-21T13:19:15.985Z,1.60
2023-10-21T13:21:43.056Z,1.20
2023-10-21T13:24:10.242Z,1.60
2023-10-21T13:26:38.526Z,1.17
2023-10-21T13:29:06.033Z,0.55
2023-10-21T13:31:34.901Z,1.15
2023-10-21T13:34:04.222Z,0.85
2023-10-21T13:36:31.993Z,1.25
2023-10-21T13:38:58.776Z,1.15
2023-10-21T13:41:26.317Z,1.38
2023-10-21T13:43:52.965Z,1.25
2023-10-21T13:46:19.622Z,1.55
2023-10-21T13:48:46.181Z,0.80
2023-10-21T13:51:12.800Z,1.02
2023-10-21T13:53:39.572Z,0.90
2023-10-21T13:56:07.894Z,1.02
2023-10-21T13:58:35.424Z,1.10
2023-10-21T14:01:02.624Z,1.10
2023-10-21T14:03:29.695Z,1.05
2023-10-21T14:06:05.956Z,1.08
2023-10-21T14:08:33.916Z,1.42
2023-10-21T14:11:02.659Z,1.30
2023-10-21T14:13:29.688Z,1.23
2023-10-21T14:15:59.185Z,0.70
2023-10-21T14:18:25.925Z,0.98
2023-10-21T14:20:53.013Z,1.40
2023-10-21T14:23:21.083Z,1.20
2023-10-21T14:25:51.717Z,1.35
2023-10-21T14:28:19.852Z,1.20
2023-10-21T14:30:52.798Z,1.35
2023-10-21T14:33:23.649Z,1.65
2023-10-21T14:35:52.335Z,1.20
2023-10-21T14:38:19.792Z,2.20
2023-10-21T14:40:47.121Z,1.85
2023-10-21T14:43:15.198Z,1.17
2023-10-21T14:45:43.950Z,1.55
2023-10-21T14:48:14.519Z,1.60
2023-10-21T14:50:42.090Z,1.50
2023-10-21T14:53:10.389Z,1.17
2023-10-21T14:55:51.532Z,1.50
2023-10-21T14:58:23.180Z,1.13
2023-10-21T15:00:49.867Z,1.40
2023-10-21T15:03:23.762Z,1.50
2023-10-21T15:05:51.417Z,1.63
2023-10-21T15:08:22.569Z,1.50
2023-10-21T15:10:50.767Z,1.35
2023-10-21T15:13:18.258Z,1.42
2023-10-21T15:15:45.933Z,1.58
2023-10-21T15:18:12.751Z,1.05
2023-10-21T15:20:39.725Z,0.95
2023-10-21T15:23:06.595Z,1.52
2023-10-21T15:25:34.258Z,1.88
2023-10-21T15:28:01.170Z,1.73
2023-10-21T15:30:27.960Z,1.73
2023-10-21T15:32:57.241Z,1.98
2023-10-21T15:35:24.235Z,1.80
2023-10-21T15:37:51.624Z,1.70
2023-10-21T15:40:18.539Z,1.80
2023-10-21T15:42:46.841Z,1.80
2023-10-21T15:45:16.352Z,1.83
2023-10-21T15:47:43.245Z,1.45
2023-10-21T15:50:11.062Z,1.40
2023-10-21T15:52:37.673Z,1.63
2023-10-21T15:55:07.260Z,1.90
2023-10-21T15:57:34.618Z,1.40
2023-10-21T16:00:03.869Z,1.65
2023-10-21T16:02:38.487Z,1.70
2023-10-21T16:05:05.742Z,1.52
2023-10-21T16:09:59.168Z,1.65
2023-10-21T16:12:26.368Z,1.50
2023-10-21T16:14:53.070Z,1.65
2023-10-21T16:17:19.597Z,2.17
2023-10-21T16:19:46.202Z,1.88
2023-10-21T16:22:12.982Z,1.67
2023-10-21T16:24:39.657Z,1.67
2023-10-21T16:27:07.722Z,1.90
2023-10-21T16:29:34.555Z,1.60
2023-10-21T16:32:01.354Z,1.40
2023-10-21T16:34:28.159Z,1.75
2023-10-21T16:36:56.056Z,1.95
2023-10-21T16:39:23.206Z,2.03
2023-10-21T16:41:49.948Z,2.33
2023-10-21T16:44:16.585Z,2.17
2023-10-21T16:46:43.438Z,2.03
2023-10-21T16:49:10.110Z,2.20
2023-10-21T16:51:36.823Z,1.05
2023-10-21T16:54:03.597Z,1.33
2023-10-21T16:56:30.148Z,1.55
2023-10-21T16:58:56.683Z,1.40
2023-10-21T17:01:23.669Z,1.15
2023-10-21T17:03:50.919Z,1.30
2023-10-21T17:06:17.571Z,1.08
2023-10-21T17:08:44.236Z,1.20
2023-10-21T17:11:11.058Z,1.70
2023-10-21T17:13:37.706Z,1.05
2023-10-21T17:16:04.829Z,1.13
2023-10-21T17:18:34.566Z,0.98
2023-10-21T17:21:02.564Z,0.80
2023-10-21T17:23:29.174Z,1.40
2023-10-21T17:25:56.799Z,1.20
2023-10-21T17:28:23.568Z,1.17
2023-10-21T17:30:50.271Z,1.70
2023-10-21T17:33:17.050Z,1.30
2023-10-21T17:35:44.488Z,1.35
2023-10-21T17:38:11.058Z,1.55
2023-10-21T17:40:37.771Z,1.55
2023-10-21T17:43:06.330Z,1.15
2023-10-21T17:45:32.982Z,0.95
2023-10-21T17:47:59.757Z,1.13
2023-10-21T17:50:26.460Z,1.33
2023-10-21T17:52:53.309Z,1.45
2023-10-21T17:55:22.024Z,0.73
2023-10-21T17:57:48.613Z,1.27
2023-10-21T18:00:20.614Z,1.30
2023-10-21T18:02:47.736Z,1.20
2023-10-21T18:05:14.281Z,0.95
2023-10-21T18:07:40.876Z,1.33
2023-10-21T18:10:07.919Z,1.08
2023-10-21T18:12:34.701Z,1.13
2023-10-21T18:15:04.220Z,1.30
2023-10-21T18:17:32.528Z,1.33
2023-10-21T18:19:59.080Z,1.02
2023-10-21T18:22:25.978Z,1.38
2023-10-21T18:24:53.923Z,1.20
2023-10-21T18:27:20.552Z,0.85
2023-10-21T18:29:47.193Z,1.05
2023-10-21T18:32:16.125Z,1.00
2023-10-21T18:34:42.920Z,1.30
2023-10-21T18:37:09.854Z,0.55
2023-10-21T18:39:38.891Z,1.00
2023-10-21T18:42:06.236Z,0.60
2023-10-21T18:44:32.850Z,1.00
2023-10-21T18:46:59.669Z,0.60
2023-10-21T18:49:26.283Z,1.10
2023-10-21T18:51:54.144Z,1.27
2023-10-21T18:54:22.732Z,0.88
2023-10-21T18:56:49.424Z,1.20
2023-10-21T18:59:16.126Z,1.13
2023-10-21T19:01:42.891Z,1.00
2023-10-21T19:04:09.668Z,0.80
2023-10-21T19:06:37.018Z,1.08
2023-10-21T19:09:04.196Z,1.38
2023-10-21T19:11:30.987Z,1.17
2023-10-21T19:13:57.714Z,1.02
2023-10-21T19:16:24.397Z,0.60
2023-10-21T19:18:51.921Z,0.75
2023-10-21T19:21:18.955Z,0.90
2023-10-21T19:23:46.177Z,0.60
2023-10-21T19:26:12.815Z,0.95
2023-10-21T19:28:39.408Z,0.98
2023-10-21T19:31:11.036Z,0.90
2023-10-21T19:33:37.957Z,0.70
2023-10-21T19:36:05.143Z,0.73
2023-10-21T19:38:32.825Z,0.85
2023-10-21T19:41:03.046Z,0.85
2023-10-21T19:43:29.616Z,0.82
2023-10-21T19:45:56.200Z,0.90
2023-10-21T19:48:22.808Z,0.60
2023-10-21T19:50:49.435Z,0.90
2023-10-21T19:53:16.081Z,0.63
2023-10-21T19:55:44.305Z,0.90
2023-10-21T19:58:14.773Z,0.80
2023-10-21T20:00:41.437Z,0.77
2023-10-21T20:03:08.378Z,0.77
2023-10-21T20:05:36.778Z,1.05
2023-10-21T20:08:03.422Z,0.60
2023-10-21T20:10:30.007Z,0.90
2023-10-21T20:12:56.631Z,0.73
2023-10-21T20:15:23.235Z,0.90
2023-10-21T20:17:50.289Z,0.85
2023-10-21T20:20:17.134Z,0.80
2023-10-21T20:22:43.792Z,0.70
2023-10-21T20:25:10.568Z,0.70
2023-10-21T20:27:37.168Z,0.50
2023-10-21T20:30:04.998Z,0.70
2023-10-21T20:32:31.693Z,0.80
2023-10-21T20:34:58.288Z,0.93
2023-10-21T20:37:27.263Z,0.60
2023-10-21T20:39:53.965Z,0.70
2023-10-21T20:42:20.692Z,0.70
2023-10-21T20:44:48.160Z,0.50
2023-10-21T20:47:15.192Z,0.75
2023-10-21T20:49:41.755Z,1.02
2023-10-21T20:52:13.734Z,0.80
2023-10-21T20:54:40.603Z,0.60
2023-10-21T20:57:07.248Z,0.73
2023-10-21T20:59:33.952Z,0.60
2023-10-21T21:02:01.284Z,0.65
2023-10-21T21:04:28.561Z,1.02
2023-10-21T21:06:55.241Z,0.75
2023-10-21T21:09:21.847Z,0.80
2023-10-21T21:11:52.697Z,0.85
2023-10-21T21:14:19.769Z,0.60
2023-10-21T21:16:46.539Z,0.47
2023-10-21T21:19:13.240Z,0.68
2023-10-21T21:21:39.996Z,0.60
2023-10-21T21:24:07.035Z,0.73
2023-10-21T21:26:34.137Z,0.40
2023-10-21T21:29:01.107Z,0.80
2023-10-21T21:31:28.349Z,0.75
2023-10-21T21:33:55.069Z,0.80
2023-10-21T21:36:21.743Z,0.77
2023-10-21T21:38:48.284Z,0.60
2023-10-21T21:41:16.372Z,0.40
2023-10-21T21:43:43.247Z,0.85
2023-10-21T21:46:13.940Z,0.40
2023-10-21T21:48:40.863Z,0.70
2023-10-21T21:51:07.452Z,0.60
2023-10-21T21:53:36.395Z,0.75
2023-10-21T21:56:06.532Z,0.75
2023-10-21T21:58:33.243Z,0.70
2023-10-21T22:01:03.308Z,0.68
2023-10-21T22:03:30.186Z,0.75
2023-10-21T22:05:57.106Z,0.63
2023-10-21T22:08:23.784Z,0.80
2023-10-21T22:10:50.436Z,0.60
2023-10-21T22:13:19.094Z,0.50
2023-10-21T22:15:46.331Z,0.40
2023-10-21T22:18:14.007Z,0.50
2023-10-21T22:20:42.730Z,0.47
2023-10-21T22:23:11.809Z,0.40
2023-10-21T22:25:41.397Z,0.57
2023-10-21T22:28:13.050Z,0.60
2023-10-21T22:30:43.985Z,0.47
2023-10-21T22:33:11.406Z,0.57
2023-10-21T22:35:38.476Z,0.60
2023-10-21T22:38:07.051Z,0.55
2023-10-21T22:40:34.095Z,0.60
2023-10-21T22:43:01.975Z,0.30
2023-10-21T22:45:29.569Z,0.50
2023-10-21T22:47:56.454Z,0.43
2023-10-21T22:50:23.121Z,1.00
2023-10-21T22:52:49.809Z,0.70
2023-10-21T22:55:16.537Z,0.50
2023-10-21T22:57:44.894Z,0.30
2023-10-21T23:00:14.597Z,0.43
2023-10-21T23:02:44.331Z,0.45
2023-10-21T23:05:11.751Z,0.40
2023-10-21T23:07:39.008Z,0.40
2023-10-21T23:10:27.818Z,0.52
2023-10-21T23:12:54.935Z,0.63
2023-10-21T23:15:21.845Z,0.43
2023-10-21T23:17:49.414Z,0.73
2023-10-21T23:20:17.133Z,0.50
2023-10-21T23:22:44.327Z,0.77
2023-10-21T23:25:11.282Z,0.70
2023-10-21T23:27:41.976Z,0.50
2023-10-21T23:30:12.532Z,0.70
2023-10-21T23:32:39.476Z,0.63
2023-10-21T23:35:06.901Z,0.93
2023-10-21T23:37:34.265Z,0.75
2023-10-21T23:40:01.152Z,0.63
2023-10-21T23:42:30.447Z,0.88
2023-10-21T23:44:58.570Z,0.73
2023-10-21T23:47:26.102Z,1.00
2023-10-21T23:49:55.609Z,0.68
2023-10-21T23:52:22.601Z,0.90
2023-10-21T23:54:49.290Z,0.77
2023-10-21T23:57:17.632Z,0.60
2023-10-21T23:59:44.474Z,0.90
